.
WxDataArchive / Data Records for 2013-05-24
2013-05-23 May 2013 2013-05-25

Data Records for Friday, 24 May 2013

Time	Temp	Chill	HIndex	Humid	Dewpt	 Wind 	HiWind	WindDir	Rain 	Barom 
-----	----	-----	------	-----	-----	------	------	-------	-----	----- 
00:00	50.1	50.1	50.1	82	44.8	1	5	315	0.00	30.150 
00:05	49.9	49.9	49.9	82	44.6	1	3	315	0.00	30.150 
00:10	49.9	49.9	49.9	83	44.9	1	3	315	0.00	30.150 
00:15	49.8	49.8	49.8	83	44.8	1	4	315	0.00	30.154 
00:20	49.8	49.8	49.8	83	44.8	0	3	270	0.00	30.154 
00:25	49.8	49.8	49.8	83	44.8	1	5	292	0.00	30.154 
00:30	49.8	49.8	49.8	83	44.8	2	4	292	0.00	30.156 
00:35	49.5	49.5	49.5	83	44.6	1	6	292	0.00	30.156 
00:40	49.4	49.4	49.4	82	44.1	2	5	315	0.00	30.156 
00:45	49.2	49.2	49.2	82	43.9	1	4	315	0.00	30.168 
00:50	49.1	49.1	49.1	81	43.5	1	4	315	0.00	30.168 
00:55	48.9	48.9	48.9	81	43.3	0	3	315	0.00	30.168 
01:00	48.9	48.9	48.9	81	43.3	1	5	112	0.00	30.170 
01:05	48.8	48.8	48.8	79	42.6	1	4	0	0.00	30.170 
01:10	48.8	48.8	48.8	79	42.6	1	3	0	0.00	30.170 
01:15	48.6	48.6	48.6	77	41.7	2	5	338	0.00	30.173 
01:20	48.6	48.6	48.6	77	41.7	1	4	315	0.00	30.173 
01:25	48.6	48.6	48.6	77	41.7	1	4	315	0.00	30.173 
01:30	48.6	48.6	48.6	77	41.7	1	4	315	0.00	30.175 
01:35	48.5	48.5	48.5	77	41.6	1	3	315	0.00	30.175 
01:40	48.3	48.3	48.3	78	41.8	0	2	315	0.00	30.175 
01:45	48.3	48.3	48.3	78	41.8	0	3	180	0.00	30.178 
01:50	48.2	48.2	48.2	78	41.7	2	5	292	0.00	30.178 
01:55	48.0	48.0	48.0	79	41.8	1	3	315	0.00	30.178 
02:00	47.9	47.9	47.9	79	41.7	2	5	270	0.00	30.175 
02:05	47.9	47.9	47.9	79	41.7	1	3	270	0.00	30.175 
02:10	47.9	47.9	47.9	79	41.7	0	3	270	0.00	30.175 
02:15	47.9	47.9	47.9	80	42.0	1	3	270	0.00	30.179 
02:20	47.9	47.9	47.9	80	42.0	1	4	270	0.00	30.179 
02:25	47.9	47.9	47.9	79	41.7	0	2	270	0.00	30.179 
02:30	47.7	47.7	47.7	80	41.8	1	3	270	0.00	30.185 
02:35	47.7	47.7	47.7	80	41.8	0	2	270	0.00	30.185 
02:40	47.7	47.7	47.7	80	41.8	1	4	270	0.00	30.185 
02:45	47.7	47.7	47.7	80	41.8	1	5	270	0.00	30.184 
02:50	47.7	47.7	47.7	80	41.8	0	2	270	0.00	30.184 
02:55	47.7	47.7	47.7	80	41.8	0	3	270	0.00	30.184 
03:00	47.7	47.7	47.7	80	41.8	0	1	270	0.00	30.191 
03:05	47.7	47.7	47.7	79	41.5	0	2	270	0.00	30.191 
03:10	47.7	47.7	47.7	78	41.2	0	3	270	0.00	30.191 
03:15	47.7	47.7	47.7	78	41.2	0	1	270	0.00	30.190 
03:20	47.7	47.7	47.7	78	41.2	0	1	270	0.00	30.190 
03:25	47.7	47.7	47.7	78	41.2	0	3	270	0.00	30.190 
03:30	47.7	47.7	47.7	78	41.2	0	1	270	0.00	30.194 
03:35	47.7	47.7	47.7	78	41.2	0	1	270	0.00	30.194 
03:40	47.7	47.7	47.7	78	41.2	0	1	270	0.00	30.194 
03:45	47.6	47.6	47.6	78	41.1	0	1	270	0.00	30.202 
03:50	47.4	47.4	47.4	78	40.9	0	2	270	0.00	30.202 
03:55	47.3	47.3	47.3	78	40.8	0	1	270	0.00	30.202 
04:00	47.1	47.1	47.1	78	40.6	0	2	270	0.00	30.206 
04:05	47.0	47.0	47.0	78	40.5	0	1	270	0.00	30.206 
04:10	47.0	47.0	47.0	78	40.5	0	1	270	0.00	30.206 
04:15	46.8	46.8	46.8	79	40.6	0	0	---	0.00	30.213 
04:20	46.7	46.7	46.7	79	40.5	0	0	---	0.00	30.213 
04:25	46.5	46.5	46.5	80	40.7	0	0	---	0.00	30.213 
04:30	46.4	46.4	46.4	80	40.6	0	0	---	0.00	30.217 
04:35	46.1	46.1	46.1	80	40.3	0	1	270	0.00	30.217 
04:40	46.0	46.0	46.0	81	40.5	0	2	270	0.00	30.217 
04:45	45.8	45.8	45.8	81	40.3	0	0	---	0.00	30.223 
04:50	45.7	45.7	45.7	82	40.5	0	0	---	0.00	30.223 
04:55	45.4	45.4	45.4	82	40.2	0	0	---	0.00	30.223 
05:00	45.2	45.2	45.2	82	40.0	0	1	270	0.00	30.226 
05:05	44.9	44.9	44.9	83	40.1	0	0	---	0.00	30.226 
05:10	44.8	44.8	44.8	83	40.0	0	2	270	0.00	30.226 
05:15	44.6	44.6	44.6	83	39.8	0	2	270	0.00	30.228 
05:20	44.3	44.3	44.3	83	39.5	0	2	270	0.00	30.228 
05:25	44.2	44.2	44.2	82	39.1	0	2	270	0.00	30.228 
05:30	44.1	44.1	44.1	82	39.0	0	2	270	0.00	30.230 
05:35	43.9	43.9	43.9	82	38.8	0	1	270	0.00	30.230 
05:40	43.8	43.8	43.8	82	38.7	0	2	270	0.00	30.230 
05:45	43.5	43.5	43.5	81	38.1	0	2	270	0.00	30.237 
05:50	43.2	43.2	43.2	81	37.8	0	2	270	0.00	30.237 
05:55	43.1	43.1	43.1	81	37.7	0	1	270	0.00	30.237 
06:00	42.8	42.8	42.8	81	37.4	0	2	270	0.00	30.242 
06:05	42.6	42.6	42.6	81	37.2	0	1	270	0.00	30.242 
06:10	42.5	42.5	42.5	81	37.1	0	2	270	0.00	30.242 
06:15	42.3	42.3	42.3	81	36.9	0	3	270	0.00	30.246 
06:20	42.2	42.2	42.2	81	36.8	0	1	270	0.00	30.246 
06:25	42.1	42.1	42.1	81	36.7	0	2	270	0.00	30.246 
06:30	41.8	41.8	41.8	81	36.4	0	1	270	0.00	30.257 
06:35	41.6	41.6	41.6	82	36.5	0	1	270	0.00	30.257 
06:40	41.6	41.6	41.6	82	36.5	0	1	270	0.00	30.257 
06:45	41.5	41.5	41.5	82	36.4	0	2	270	0.00	30.260 
06:50	41.5	41.5	41.5	82	36.4	0	2	270	0.00	30.260 
06:55	41.5	41.5	41.5	82	36.4	0	3	270	0.00	30.260 
07:00	41.5	41.5	41.5	82	36.4	0	3	270	0.00	30.263 
07:05	41.5	41.5	41.5	82	36.4	0	2	270	0.00	30.263 
07:10	41.5	41.5	41.5	82	36.4	1	3	270	0.00	30.263 
07:15	41.6	41.6	41.6	82	36.5	1	4	270	0.00	30.278 
07:20	41.9	41.9	41.9	81	36.5	1	3	270	0.00	30.278 
07:25	42.1	42.1	42.1	81	36.7	1	2	270	0.00	30.278 
07:30	42.3	42.3	42.3	80	36.6	1	3	270	0.00	30.280 
07:35	42.5	42.5	42.5	79	36.5	1	4	270	0.00	30.280 
07:40	42.6	42.6	42.6	79	36.6	1	3	0	0.00	30.280 
07:45	42.9	42.9	42.9	79	36.8	1	3	135	0.00	30.293 
07:50	43.1	43.1	43.1	77	36.4	1	3	292	0.00	30.293 
07:55	43.3	43.3	43.3	77	36.6	1	4	292	0.00	30.293 
08:00	43.5	43.5	43.5	76	36.4	2	5	292	0.00	30.300 
08:05	43.6	43.6	43.6	75	36.2	2	4	292	0.00	30.300 
08:10	44.1	44.1	44.1	76	37.0	0	2	292	0.00	30.300 
08:15	44.5	44.5	44.5	74	36.7	1	4	292	0.00	30.302 
08:20	44.8	44.8	44.8	74	37.0	0	3	292	0.00	30.302 
08:25	45.1	45.1	45.1	74	37.3	1	4	292	0.00	30.302 
08:30	45.4	45.4	45.4	73	37.3	0	3	292	0.00	30.310 
08:35	45.8	45.8	45.8	73	37.6	1	3	292	0.00	30.310 
08:40	46.4	46.4	46.4	73	38.2	0	3	292	0.00	30.310 
08:45	46.4	46.4	46.4	71	37.5	2	5	292	0.00	30.311 
08:50	46.1	46.1	46.1	71	37.2	2	5	315	0.00	30.311 
08:55	46.1	46.1	46.1	71	37.2	1	4	315	0.00	30.311 
09:00	46.1	46.1	46.1	71	37.2	2	5	292	0.00	30.318 
09:05	46.4	46.4	46.4	71	37.5	1	4	292	0.00	30.318 
09:10	46.8	46.8	46.8	72	38.3	1	3	315	0.00	30.318 
09:15	47.7	47.7	47.7	71	38.8	1	3	22	0.00	30.321 
09:20	48.5	48.5	48.5	70	39.2	1	2	22	0.00	30.321 
09:25	49.1	49.1	49.1	69	39.4	0	3	22	0.00	30.321 
09:30	49.2	49.2	49.2	68	39.1	1	4	292	0.00	30.322 
09:35	49.1	49.1	49.1	67	38.6	1	2	292	0.00	30.322 
09:40	49.1	49.1	49.1	68	39.0	1	4	292	0.00	30.322 
09:45	49.1	49.1	49.1	65	37.8	2	4	315	0.00	30.329 
09:50	49.2	49.2	49.2	68	39.1	1	4	315	0.00	30.329 
09:55	49.5	49.5	49.5	65	38.2	1	4	292	0.00	30.329 
10:00	49.6	49.6	49.6	66	38.7	1	3	292	0.00	30.326 
10:05	49.8	49.8	49.8	65	38.5	2	6	292	0.00	30.326 
10:10	50.1	50.1	50.1	64	38.4	1	5	292	0.00	30.326 
10:15	50.5	50.5	50.5	66	39.6	1	4	315	0.00	30.333 
10:20	51.0	51.0	51.0	62	38.4	1	4	90	0.00	30.333 
10:25	50.4	50.4	50.4	61	37.5	2	4	270	0.00	30.333 
10:30	50.2	50.2	50.2	62	37.7	1	5	315	0.00	30.332 
10:35	50.7	50.7	50.7	62	38.2	1	3	315	0.00	30.332 
10:40	51.4	51.4	51.4	62	38.8	1	3	90	0.00	30.332 
10:45	51.7	51.7	51.7	59	37.8	1	5	270	0.00	30.333 
10:50	52.2	52.2	52.2	62	39.6	1	4	270	0.00	30.333 
10:55	52.9	52.9	52.9	59	39.0	1	5	292	0.00	30.333 
11:00	52.5	52.5	52.5	57	37.7	2	6	292	0.00	30.333 
11:05	52.5	52.5	52.5	58	38.2	1	4	315	0.00	30.333 
11:10	52.5	52.5	52.5	57	37.7	1	6	315	0.00	30.333 
11:15	52.3	52.3	52.3	55	36.6	3	7	270	0.00	30.331 
11:20	52.3	52.3	52.3	55	36.6	2	6	292	0.00	30.331 
11:25	52.5	52.5	52.5	54	36.3	2	6	315	0.00	30.331 
11:30	52.8	52.8	52.8	55	37.1	2	4	270	0.00	30.323 
11:35	53.1	53.1	53.1	54	36.9	2	5	292	0.00	30.323 
11:40	53.2	53.2	53.2	52	36.0	2	6	338	0.00	30.323 
11:45	53.3	53.3	53.3	53	36.6	2	6	315	0.00	30.331 
11:50	53.8	53.8	53.8	52	36.6	2	5	315	0.00	30.331 
11:55	54.1	54.1	54.1	54	37.8	2	5	292	0.00	30.331 
12:00	54.4	54.4	54.4	50	36.2	2	5	0	0.00	30.334 
12:05	54.5	54.5	54.5	51	36.7	1	6	270	0.00	30.334 
12:10	55.0	55.0	55.0	50	36.7	1	3	270	0.00	30.334 
12:15	55.4	55.4	55.4	55	39.5	1	3	270	0.00	30.334 
12:20	55.3	55.3	55.3	50	37.0	2	4	270	0.00	30.334 
12:25	54.8	54.8	54.8	50	36.5	2	7	338	0.00	30.334 
12:30	55.4	55.4	55.4	52	38.1	1	4	315	0.00	30.332 
12:35	55.9	55.9	55.9	47	36.0	2	5	315	0.00	30.332 
12:40	56.0	56.0	56.0	48	36.6	1	3	315	0.00	30.332 
12:45	56.2	56.2	56.2	49	37.3	1	4	338	0.00	30.333 
12:50	56.0	56.0	56.0	49	37.1	2	5	315	0.00	30.333 
12:55	56.2	56.2	56.2	47	36.2	2	7	270	0.00	30.333 
13:00	56.0	56.0	56.0	47	36.1	3	6	292	0.00	30.334 
13:05	56.3	56.3	56.3	47	36.3	3	7	270	0.00	30.334 
13:10	56.7	56.7	56.7	47	36.7	2	5	338	0.00	30.334 
13:15	57.0	57.0	57.0	46	36.4	2	4	315	0.00	30.332 
13:20	56.9	56.9	56.9	48	37.4	2	6	292	0.00	30.332 
13:25	57.2	57.2	57.2	45	36.1	2	6	22	0.00	30.332 
13:30	57.2	57.2	57.2	44	35.5	2	6	315	0.00	30.328 
13:35	57.6	57.6	57.6	47	37.5	1	3	22	0.00	30.328 
13:40	58.0	58.0	58.0	45	36.8	1	6	270	0.00	30.328 
13:45	58.0	58.0	58.0	44	36.2	2	7	315	0.00	30.329 
13:50	58.6	58.6	58.6	48	39.0	1	3	270	0.00	30.329 
13:55	58.6	58.6	58.6	40	34.4	3	5	292	0.00	30.329 
14:00	58.3	58.3	58.3	42	35.3	3	7	270	0.00	30.324 
14:05	58.6	58.6	58.6	43	36.2	2	5	315	0.00	30.324 
14:10	59.2	59.2	59.2	45	37.9	1	4	292	0.00	30.324 
14:15	59.5	59.5	59.5	42	36.4	2	4	112	0.00	30.316 
14:20	59.3	59.3	59.3	42	36.2	2	5	270	0.00	30.316 
14:25	59.0	59.0	59.0	41	35.3	2	7	315	0.00	30.316 
14:30	59.5	59.5	59.5	43	37.0	2	6	270	0.00	30.327 
14:35	59.5	59.5	59.5	41	35.8	2	5	315	0.00	30.327 
14:40	59.5	59.5	59.5	41	35.8	2	6	292	0.00	30.327 
14:45	59.3	59.3	59.3	40	35.0	2	4	292	0.00	30.327 
14:50	59.5	59.5	59.5	39	34.5	3	6	292	0.00	30.327 
14:55	59.8	59.8	59.8	40	35.4	2	10	315	0.00	30.327 
15:00	60.1	60.1	60.1	41	36.3	2	6	338	0.00	30.322 
15:05	60.5	60.5	60.5	39	35.4	2	7	135	0.00	30.322 
15:10	60.5	60.5	60.5	39	35.4	3	7	270	0.00	30.322 
15:15	60.5	60.5	60.5	40	36.1	2	4	292	0.00	30.315 
15:20	61.0	61.0	61.0	40	36.5	2	4	292	0.00	30.315 
15:25	61.2	61.2	61.2	40	36.7	2	5	292	0.00	30.315 
15:30	61.5	61.5	61.5	42	38.2	2	6	112	0.00	30.315 
15:35	62.1	62.1	62.1	41	38.1	2	6	112	0.00	30.315 
15:40	62.1	62.1	62.1	36	34.8	1	4	338	0.00	30.315 
15:45	62.0	62.0	62.0	37	35.4	2	6	338	0.00	30.312 
15:50	62.0	62.0	62.0	37	35.4	1	4	338	0.00	30.312 
15:55	62.1	62.1	62.1	38	36.2	2	4	315	0.00	30.312 
16:00	62.4	62.4	62.4	41	38.4	1	6	292	0.00	30.313 
16:05	62.6	62.6	62.6	38	36.6	1	3	315	0.00	30.313 
16:10	62.9	62.9	62.9	35	34.8	2	4	315	0.00	30.313 
16:15	62.9	62.9	62.9	36	35.5	2	5	315	0.00	30.311 
16:20	62.7	62.7	62.7	35	34.7	2	6	270	0.00	30.311 
16:25	62.6	62.6	62.6	37	36.0	2	5	315	0.00	30.311 
16:30	63.1	63.1	63.1	37	36.4	1	3	315	0.00	30.303 
16:35	63.1	63.1	63.1	35	35.0	2	6	315	0.00	30.303 
16:40	63.2	63.2	63.2	35	35.1	1	4	338	0.00	30.303 
16:45	63.5	63.5	63.5	35	35.4	2	5	270	0.00	30.302 
16:50	63.7	63.7	63.7	34	34.8	2	4	292	0.00	30.302 
16:55	63.2	63.2	63.2	35	35.1	2	5	270	0.00	30.302 
17:00	63.2	63.2	63.2	35	35.1	1	5	338	0.00	30.299 
17:05	63.4	63.4	63.4	37	36.7	1	6	112	0.00	30.299 
17:10	63.9	63.9	63.9	33	34.2	2	4	0	0.00	30.299 
17:15	63.9	63.9	63.9	33	34.2	1	2	270	0.00	30.299 
17:20	64.0	64.0	64.0	32	33.5	1	4	315	0.00	30.299 
17:25	63.9	63.9	63.9	34	35.0	1	3	315	0.00	30.299 
17:30	63.9	63.9	63.9	33	34.2	0	2	0	0.00	30.300 
17:35	63.9	63.9	63.9	33	34.2	2	5	292	0.00	30.300 
17:40	63.4	63.4	63.4	34	34.5	1	4	315	0.00	30.300 
17:45	63.4	63.4	63.4	35	35.3	0	2	315	0.00	30.297 
17:50	63.5	63.5	63.5	34	34.6	1	4	315	0.00	30.297 
17:55	63.2	63.2	63.2	34	34.4	1	4	315	0.00	30.297 
18:00	62.9	62.9	62.9	34	34.1	2	5	315	0.00	30.295 
18:05	62.7	62.7	62.7	34	33.9	2	5	292	0.00	30.295 
18:10	62.7	62.7	62.7	34	33.9	1	4	292	0.00	30.295 
18:15	62.7	62.7	62.7	35	34.7	1	3	292	0.00	30.293 
18:20	62.7	62.7	62.7	33	33.2	1	3	292	0.00	30.293 
18:25	62.7	62.7	62.7	34	33.9	1	4	292	0.00	30.293 
18:30	62.6	62.6	62.6	35	34.6	2	6	270	0.00	30.285 
18:35	62.4	62.4	62.4	34	33.7	2	5	270	0.00	30.285 
18:40	62.3	62.3	62.3	36	35.0	1	3	270	0.00	30.285 
18:45	62.3	62.3	62.3	36	35.0	1	3	270	0.00	30.277 
18:50	62.4	62.4	62.4	35	34.4	1	3	270	0.00	30.277 
18:55	62.4	62.4	62.4	35	34.4	1	3	270	0.00	30.277 
19:00	62.3	62.3	62.3	35	34.3	1	5	270	0.00	30.272 
19:05	62.3	62.3	62.3	36	35.0	0	1	292	0.00	30.272 
19:10	62.1	62.1	62.1	37	35.5	0	2	292	0.00	30.272 
19:15	62.0	62.0	62.0	34	33.3	0	2	292	0.00	30.266 
19:20	61.8	61.8	61.8	35	33.9	0	1	292	0.00	30.266 
19:25	61.8	61.8	61.8	34	33.1	0	2	292	0.00	30.266 
19:30	61.5	61.5	61.5	34	32.9	1	9	338	0.00	30.259 
19:35	61.5	61.5	61.5	36	34.3	0	2	338	0.00	30.259 
19:40	61.3	61.3	61.3	35	33.4	1	3	338	0.00	30.259 
19:45	61.3	61.3	61.3	36	34.1	0	1	315	0.00	30.268 
19:50	61.2	61.2	61.2	37	34.7	0	1	315	0.00	30.268 
19:55	61.0	61.0	61.0	35	33.2	0	2	315	0.00	30.268 
20:00	60.9	60.9	60.9	36	33.8	0	1	315	0.00	30.265 
20:05	60.5	60.5	60.5	35	32.7	0	1	315	0.00	30.265 
20:10	60.4	60.4	60.4	36	33.3	0	1	315	0.00	30.265 
20:15	60.2	60.2	60.2	36	33.1	0	1	315	0.00	30.262 
20:20	59.9	59.9	59.9	38	34.2	0	1	315	0.00	30.262 
20:25	59.8	59.8	59.8	39	34.8	0	1	315	0.00	30.262 
20:30	59.5	59.5	59.5	39	34.5	0	0	---	0.00	30.255 
20:35	59.2	59.2	59.2	41	35.5	0	0	---	0.00	30.255 
20:40	58.9	58.9	58.9	40	34.6	0	0	---	0.00	30.255 
20:45	58.7	58.7	58.7	41	35.1	0	0	---	0.00	30.258 
20:50	58.3	58.3	58.3	41	34.7	0	0	---	0.00	30.258 
20:55	57.8	57.8	57.8	42	34.9	0	0	---	0.00	30.258 
21:00	57.3	57.3	57.3	43	35.0	0	0	---	0.00	30.267 
21:05	56.7	56.7	56.7	45	35.6	0	0	---	0.00	30.267 
21:10	56.3	56.3	56.3	46	35.8	0	0	---	0.00	30.267 
21:15	55.9	55.9	55.9	48	36.5	0	0	---	0.00	30.269 
21:20	55.3	55.3	55.3	49	36.5	0	0	---	0.00	30.269 
21:25	54.8	54.8	54.8	50	36.5	0	0	---	0.00	30.269 
21:30	54.4	54.4	54.4	51	36.7	0	0	---	0.00	30.272 
21:35	53.9	53.9	53.9	53	37.2	0	0	---	0.00	30.272 
21:40	53.5	53.5	53.5	54	37.3	0	0	---	0.00	30.272 
21:45	52.9	52.9	52.9	56	37.6	0	0	---	0.00	30.280 
21:50	52.6	52.6	52.6	57	37.8	0	0	---	0.00	30.280 
21:55	52.2	52.2	52.2	59	38.3	0	0	---	0.00	30.280 
22:00	51.9	51.9	51.9	59	38.0	0	0	---	0.00	30.289 
22:05	51.6	51.6	51.6	61	38.6	0	0	---	0.00	30.289 
22:10	51.1	51.1	51.1	63	38.9	0	1	315	0.00	30.289 
22:15	50.7	50.7	50.7	63	38.6	0	0	---	0.00	30.295 
22:20	50.4	50.4	50.4	64	38.7	0	0	---	0.00	30.295 
22:25	50.1	50.1	50.1	65	38.8	0	0	---	0.00	30.295 
22:30	49.8	49.8	49.8	66	38.9	0	0	---	0.00	30.302 
22:35	49.6	49.6	49.6	66	38.7	0	0	---	0.00	30.302 
22:40	49.4	49.4	49.4	67	38.9	0	0	---	0.00	30.302 
22:45	49.2	49.2	49.2	68	39.1	0	0	---	0.00	30.304 
22:50	48.9	48.9	48.9	69	39.2	0	0	---	0.00	30.304 
22:55	48.6	48.6	48.6	69	38.9	0	0	---	0.00	30.304 
23:00	48.5	48.5	48.5	69	38.8	0	0	---	0.00	30.310 
23:05	48.2	48.2	48.2	70	38.9	0	0	---	0.00	30.310 
23:10	48.0	48.0	48.0	70	38.7	0	0	---	0.00	30.310 
23:15	47.9	47.9	47.9	72	39.3	0	0	---	0.00	30.305 
23:20	47.6	47.6	47.6	73	39.4	0	0	---	0.00	30.305 
23:25	47.4	47.4	47.4	74	39.5	0	0	---	0.00	30.305 
23:30	47.3	47.3	47.3	74	39.4	0	0	---	0.00	30.317 
23:35	47.1	47.1	47.1	75	39.6	0	0	---	0.00	30.317 
23:40	47.1	47.1	47.1	75	39.6	0	0	---	0.00	30.317 
23:45	47.1	47.1	47.1	76	39.9	0	0	---	0.00	30.324 
23:50	47.0	47.0	47.0	76	39.8	0	0	---	0.00	30.324 
23:55	46.8	46.8	46.8	75	39.3	0	0	---	0.00	30.324 

CoCoRaHS
IN-AL-39
A2 Web Hosting
Creative Commons License
GoDaddy
search engine by freefind advanced

loaded 2018-11-16 00:19:59 • last modified 2010-11-18 10:43:29
Privacy PolicyDisclaimer
• wx.awcolley.com is powered by PmWiki v.2002016 •
• all content (unless otherwise noted) © 2018 A W Colley